createdAt,value
2023-01-26T00:02:17.024Z,47.49
2023-01-26T00:05:21.550Z,47.45
2023-01-26T00:08:26.052Z,47.10
2023-01-26T00:11:31.268Z,44.34
2023-01-26T00:14:50.614Z,47.28
2023-01-26T00:17:55.106Z,46.33
2023-01-26T00:21:01.455Z,47.92
2023-01-26T00:24:06.558Z,46.46
2023-01-26T00:27:11.182Z,46.45
2023-01-26T00:30:15.802Z,46.78
2023-01-26T00:33:20.214Z,47.03
2023-01-26T00:36:25.250Z,48.73
2023-01-26T00:39:29.726Z,48.65
2023-01-26T00:42:33.700Z,47.20
2023-01-26T00:45:38.279Z,46.81
2023-01-26T00:48:42.614Z,46.83
2023-01-26T00:51:46.264Z,46.74
2023-01-26T00:54:50.740Z,47.00
2023-01-26T00:57:54.302Z,48.65
2023-01-26T01:01:00.175Z,45.45
2023-01-26T01:04:04.988Z,47.21
2023-01-26T01:07:12.351Z,46.24
2023-01-26T01:10:17.337Z,42.27
2023-01-26T01:13:21.415Z,42.09
2023-01-26T01:16:25.362Z,41.92
2023-01-26T01:19:29.789Z,39.37
2023-01-26T01:22:35.682Z,37.58
2023-01-26T01:25:40.568Z,37.81
2023-01-26T01:28:58.972Z,38.48
2023-01-26T01:32:06.132Z,37.07
2023-01-26T01:35:10.620Z,37.04
2023-01-26T01:38:14.737Z,36.23
2023-01-26T01:41:21.645Z,35.74
2023-01-26T01:44:27.360Z,36.36
2023-01-26T01:47:32.197Z,34.74
2023-01-26T01:50:40.714Z,34.69
2023-01-26T01:53:49.862Z,34.54
2023-01-26T01:56:57.336Z,34.17
2023-01-26T02:00:11.141Z,35.02
2023-01-26T02:03:22.284Z,33.89
2023-01-26T02:06:35.003Z,32.19
2023-01-26T02:09:54.348Z,32.33
2023-01-26T02:13:01.628Z,34.66
2023-01-26T02:16:06.179Z,33.59
2023-01-26T02:19:21.623Z,32.10
2023-01-26T02:22:44.580Z,33.62
2023-01-26T02:25:54.449Z,34.12
2023-01-26T02:29:00.905Z,35.45
2023-01-26T02:32:05.394Z,33.54
2023-01-26T02:35:09.766Z,34.47
2023-01-26T02:38:14.682Z,36.35
2023-01-26T02:41:39.476Z,35.80
2023-01-26T02:44:45.295Z,36.16
2023-01-26T02:47:49.492Z,34.93
2023-01-26T02:50:53.326Z,36.67
2023-01-26T02:53:57.548Z,36.21
2023-01-26T02:57:01.657Z,36.11
2023-01-26T03:00:30.564Z,37.77
2023-01-26T03:03:43.303Z,36.65
2023-01-26T03:06:52.385Z,37.91
2023-01-26T03:09:56.727Z,37.04
2023-01-26T03:13:05.365Z,37.18
2023-01-26T03:16:14.296Z,36.01
2023-01-26T03:19:39.223Z,35.41
2023-01-26T03:23:16.939Z,35.07
2023-01-26T03:26:45.339Z,35.04
2023-01-26T03:29:50.422Z,34.68
2023-01-26T03:33:00.439Z,36.58
2023-01-26T03:36:05.039Z,37.17
2023-01-26T03:39:08.914Z,35.06
2023-01-26T03:42:31.341Z,36.36
2023-01-26T03:45:55.453Z,35.64
2023-01-26T03:49:22.170Z,36.18
2023-01-26T03:52:50.456Z,35.29
2023-01-26T03:56:17.453Z,35.01
2023-01-26T03:59:38.451Z,35.87
2023-01-26T04:03:05.984Z,36.43
2023-01-26T04:06:30.768Z,34.69
2023-01-26T04:09:37.901Z,36.54
2023-01-26T04:12:44.635Z,36.74
2023-01-26T04:16:15.496Z,34.90
2023-01-26T04:19:38.010Z,35.78
2023-01-26T04:22:46.391Z,36.10
2023-01-26T04:25:53.349Z,35.04
2023-01-26T04:28:58.019Z,35.80
2023-01-26T04:32:02.121Z,35.70
2023-01-26T04:35:08.911Z,33.94
2023-01-26T04:38:14.382Z,34.87
2023-01-26T04:41:20.347Z,36.35
2023-01-26T04:44:30.860Z,34.90
2023-01-26T04:47:35.544Z,35.26
2023-01-26T04:50:40.794Z,35.92
2023-01-26T04:53:45.741Z,36.19
2023-01-26T04:56:50.441Z,34.46
2023-01-26T04:59:58.163Z,35.55
2023-01-26T05:03:05.899Z,35.92
2023-01-26T05:06:11.717Z,36.01
2023-01-26T05:09:17.232Z,34.93
2023-01-26T05:12:35.338Z,35.84
2023-01-26T05:15:57.846Z,36.01
2023-01-26T05:19:20.534Z,35.27
2023-01-26T05:22:50.968Z,34.97
2023-01-26T05:26:10.237Z,35.17
2023-01-26T05:29:38.834Z,36.79
2023-01-26T05:32:43.968Z,36.06
2023-01-26T05:35:53.933Z,34.13
2023-01-26T05:38:57.985Z,36.49
2023-01-26T05:42:03.922Z,36.03
2023-01-26T05:45:31.566Z,34.97
2023-01-26T05:48:38.281Z,37.30
2023-01-26T05:51:43.834Z,36.42
2023-01-26T05:54:51.115Z,35.51
2023-01-26T05:57:55.496Z,34.92
2023-01-26T06:01:04.728Z,35.82
2023-01-26T06:04:17.250Z,33.38
2023-01-26T06:07:28.939Z,33.07
2023-01-26T06:10:45.496Z,33.00
2023-01-26T06:14:09.837Z,34.56
2023-01-26T06:17:19.370Z,33.54
2023-01-26T06:20:27.431Z,35.54
2023-01-26T06:23:35.550Z,35.71
2023-01-26T06:26:40.195Z,33.56
2023-01-26T06:29:47.288Z,33.95
2023-01-26T06:32:51.529Z,34.23
2023-01-26T06:35:56.761Z,35.70
2023-01-26T06:39:01.356Z,35.63
2023-01-26T06:42:05.962Z,34.75
2023-01-26T06:45:10.441Z,35.90
2023-01-26T06:48:15.662Z,35.25
2023-01-26T06:51:23.741Z,35.84
2023-01-26T06:54:28.331Z,34.57
2023-01-26T06:57:57.896Z,34.55
2023-01-26T07:01:28.232Z,35.37
2023-01-26T07:04:32.599Z,34.80
2023-01-26T07:07:37.457Z,34.14
2023-01-26T07:10:42.046Z,35.53
2023-01-26T07:13:46.652Z,35.18
2023-01-26T07:16:51.229Z,36.02
2023-01-26T07:19:55.664Z,35.55
2023-01-26T07:23:03.095Z,35.86
2023-01-26T07:26:08.320Z,35.83
2023-01-26T07:29:12.834Z,35.30
2023-01-26T07:32:17.175Z,35.46
2023-01-26T07:35:21.715Z,35.29
2023-01-26T07:38:27.171Z,35.56
2023-01-26T07:41:31.147Z,35.27
2023-01-26T07:44:35.837Z,35.56
2023-01-26T07:47:40.076Z,35.30
2023-01-26T07:50:45.934Z,36.42
2023-01-26T07:53:50.845Z,36.13
2023-01-26T07:56:55.788Z,36.15
2023-01-26T07:59:59.340Z,37.32
2023-01-26T08:03:03.994Z,38.27
2023-01-26T08:06:12.047Z,38.30
2023-01-26T08:09:18.145Z,38.52
2023-01-26T08:12:21.919Z,38.59
2023-01-26T08:15:27.075Z,39.61
2023-01-26T08:18:32.072Z,39.78
2023-01-26T08:21:36.133Z,39.61
2023-01-26T08:24:41.854Z,39.87
2023-01-26T08:27:46.687Z,40.23
2023-01-26T08:30:53.549Z,41.09
2023-01-26T08:33:58.272Z,40.69
2023-01-26T08:37:03.057Z,41.11
2023-01-26T08:40:11.892Z,41.53
2023-01-26T08:43:16.037Z,41.58
2023-01-26T08:46:22.383Z,41.51
2023-01-26T08:49:26.630Z,41.90
2023-01-26T08:52:31.050Z,42.34
2023-01-26T08:55:36.591Z,42.37
2023-01-26T08:58:41.731Z,43.19
2023-01-26T09:01:46.515Z,43.38
2023-01-26T09:04:50.582Z,42.15
2023-01-26T09:07:57.021Z,41.74
2023-01-26T09:11:01.612Z,41.89
2023-01-26T09:14:05.804Z,42.35
2023-01-26T09:17:10.226Z,41.65
2023-01-26T09:20:18.303Z,41.90
2023-01-26T09:23:22.735Z,41.27
2023-01-26T09:26:26.850Z,42.33
2023-01-26T09:29:30.979Z,41.65
2023-01-26T09:32:35.755Z,42.85
2023-01-26T09:35:41.372Z,43.45
2023-01-26T09:38:45.271Z,43.95
2023-01-26T09:42:18.351Z,44.64
2023-01-26T09:45:39.378Z,44.54
2023-01-26T09:48:55.446Z,43.75
2023-01-26T09:52:11.516Z,43.50
2023-01-26T09:55:20.566Z,43.78
2023-01-26T09:58:41.012Z,44.27
2023-01-26T10:01:47.256Z,44.13
2023-01-26T10:04:57.419Z,42.96
2023-01-26T10:08:01.379Z,43.54
2023-01-26T10:11:16.234Z,44.20
2023-01-26T10:14:20.401Z,44.42
2023-01-26T10:17:36.935Z,44.28
2023-01-26T10:20:46.417Z,44.79
2023-01-26T10:23:50.943Z,44.38
2023-01-26T10:26:58.977Z,43.81
2023-01-26T10:30:03.048Z,43.87
2023-01-26T10:33:37.547Z,44.09
2023-01-26T10:36:45.366Z,43.84
2023-01-26T10:40:03.071Z,43.59
2023-01-26T10:43:20.203Z,43.36
2023-01-26T10:46:36.880Z,43.94
2023-01-26T10:49:46.922Z,44.96
2023-01-26T10:53:06.237Z,45.30
2023-01-26T10:56:18.041Z,44.89
2023-01-26T10:59:36.032Z,44.34
2023-01-26T11:02:52.537Z,44.30
2023-01-26T11:06:28.499Z,44.64
2023-01-26T11:09:33.043Z,44.21
2023-01-26T11:12:37.185Z,44.00
2023-01-26T11:15:48.819Z,45.14
2023-01-26T11:19:08.261Z,44.98
2023-01-26T11:22:40.264Z,44.53
2023-01-26T11:26:10.699Z,44.00
2023-01-26T11:29:33.378Z,46.55
2023-01-26T11:32:47.999Z,46.13
2023-01-26T11:36:20.101Z,46.52
2023-01-26T11:39:54.626Z,45.45
2023-01-26T11:43:23.322Z,44.69
2023-01-26T11:47:06.738Z,45.10
2023-01-26T11:50:25.672Z,45.00
2023-01-26T11:53:54.264Z,44.64
2023-01-26T11:57:30.944Z,45.58
2023-01-26T12:01:03.597Z,45.72
2023-01-26T12:04:13.953Z,46.68
2023-01-26T12:07:26.136Z,46.13
2023-01-26T12:10:49.755Z,46.72
2023-01-26T12:14:16.144Z,46.22
2023-01-26T12:17:32.355Z,45.89
2023-01-26T12:20:42.466Z,45.93
2023-01-26T12:23:55.917Z,45.22
2023-01-26T12:27:03.778Z,45.24
2023-01-26T12:30:28.911Z,44.71
2023-01-26T12:33:36.801Z,44.28
2023-01-26T12:37:15.633Z,44.37
2023-01-26T12:40:36.073Z,44.89
2023-01-26T12:43:43.918Z,46.10
2023-01-26T12:47:01.040Z,48.65
2023-01-26T12:50:28.663Z,48.81
2023-01-26T12:53:59.555Z,48.42
2023-01-26T12:57:10.369Z,46.89
2023-01-26T13:00:36.880Z,46.76
2023-01-26T13:04:06.401Z,47.10
2023-01-26T13:07:32.822Z,47.45
2023-01-26T13:10:51.248Z,47.19
2023-01-26T13:13:57.938Z,47.58
2023-01-26T13:17:17.623Z,47.24
2023-01-26T13:20:42.315Z,46.56
2023-01-26T13:23:46.908Z,44.97
2023-01-26T13:26:53.582Z,44.96
2023-01-26T13:29:58.101Z,45.60
2023-01-26T13:33:26.776Z,46.53
2023-01-26T13:36:37.351Z,46.86
2023-01-26T13:39:45.354Z,47.34
2023-01-26T13:43:27.786Z,46.44
2023-01-26T13:46:55.707Z,46.76
2023-01-26T13:50:00.276Z,47.32
2023-01-26T13:53:37.793Z,47.67
2023-01-26T13:57:02.169Z,46.85
2023-01-26T14:00:12.674Z,47.30
2023-01-26T14:03:26.897Z,47.43
2023-01-26T14:06:33.089Z,46.56
2023-01-26T14:09:51.521Z,45.62
2023-01-26T14:12:57.642Z,46.13
2023-01-26T14:16:10.060Z,45.46
2023-01-26T14:19:23.512Z,44.88
2023-01-26T14:22:31.804Z,44.72
2023-01-26T14:26:08.624Z,45.70
2023-01-26T14:32:52.553Z,46.95
2023-01-26T14:36:07.324Z,47.29
2023-01-26T14:39:24.449Z,47.18
2023-01-26T14:42:29.424Z,47.86
2023-01-26T14:45:37.011Z,48.18
2023-01-26T14:48:58.736Z,47.57
2023-01-26T14:52:05.882Z,47.44
2023-01-26T14:55:30.182Z,46.57
2023-01-26T14:58:35.770Z,46.72
2023-01-26T15:01:42.356Z,46.90
2023-01-26T15:04:59.515Z,45.80
2023-01-26T15:08:21.340Z,45.75
2023-01-26T15:11:52.753Z,45.93
2023-01-26T15:15:06.764Z,46.63
2023-01-26T15:18:15.177Z,46.90
2023-01-26T15:21:24.609Z,46.80
2023-01-26T15:24:30.149Z,45.80
2023-01-26T15:27:40.707Z,45.35
2023-01-26T15:30:56.849Z,45.25
2023-01-26T15:34:05.884Z,46.07
2023-01-26T15:37:30.908Z,46.15
2023-01-26T15:40:40.873Z,46.22
2023-01-26T15:43:45.326Z,46.44
2023-01-26T15:46:50.173Z,47.72
2023-01-26T15:49:58.123Z,48.89
2023-01-26T15:53:02.724Z,47.74
2023-01-26T15:56:08.281Z,46.40
2023-01-26T15:59:15.927Z,45.82
2023-01-26T16:02:22.807Z,46.16
2023-01-26T16:05:28.822Z,46.54
2023-01-26T16:08:35.972Z,46.89
2023-01-26T16:11:51.162Z,46.17
2023-01-26T16:14:55.476Z,45.70
2023-01-26T16:17:59.969Z,45.66
2023-01-26T16:21:27.629Z,46.29
2023-01-26T16:24:31.940Z,47.12
2023-01-26T16:27:36.188Z,47.05
2023-01-26T16:30:40.790Z,46.53
2023-01-26T16:33:47.818Z,45.99
2023-01-26T16:36:52.404Z,45.98
2023-01-26T16:39:57.180Z,45.05
2023-01-26T16:43:20.131Z,45.81
2023-01-26T16:46:28.454Z,46.29
2023-01-26T16:49:34.771Z,46.62
2023-01-26T16:52:41.353Z,46.68
2023-01-26T16:55:46.059Z,45.83
2023-01-26T16:58:50.222Z,45.67
2023-01-26T17:01:54.474Z,45.81
2023-01-26T17:04:58.432Z,45.87
2023-01-26T17:08:02.694Z,45.23
2023-01-26T17:11:06.820Z,45.47
2023-01-26T17:14:13.788Z,45.18
2023-01-26T17:17:17.837Z,45.20
2023-01-26T17:20:22.414Z,45.87
2023-01-26T17:23:26.552Z,46.75
2023-01-26T17:26:31.022Z,47.47
2023-01-26T17:29:35.207Z,46.79
2023-01-26T17:32:39.553Z,46.06
2023-01-26T17:35:43.929Z,46.04
2023-01-26T17:38:49.597Z,46.00
2023-01-26T17:41:54.764Z,45.29
2023-01-26T17:44:59.559Z,45.98
2023-01-26T17:48:03.501Z,46.59
2023-01-26T17:51:10.942Z,47.51
2023-01-26T17:54:17.756Z,47.51
2023-01-26T17:57:22.572Z,46.86
2023-01-26T18:00:27.191Z,46.46
2023-01-26T18:03:32.102Z,45.98
2023-01-26T18:06:36.182Z,45.68
2023-01-26T18:09:41.908Z,45.19
2023-01-26T18:12:45.904Z,45.21
2023-01-26T18:15:53.158Z,45.01
2023-01-26T18:18:59.605Z,44.68
2023-01-26T18:22:04.340Z,45.39
2023-01-26T18:25:09.541Z,45.71
2023-01-26T18:28:17.897Z,45.54
2023-01-26T18:31:32.442Z,45.37
2023-01-26T18:34:37.127Z,45.38
2023-01-26T18:37:44.143Z,45.81
2023-01-26T18:40:50.767Z,45.63
2023-01-26T18:44:01.426Z,45.67
2023-01-26T18:47:06.472Z,46.73
2023-01-26T18:50:11.742Z,46.79
2023-01-26T18:53:23.468Z,46.99
2023-01-26T18:56:28.271Z,47.03
2023-01-26T18:59:32.752Z,46.84
2023-01-26T19:02:39.017Z,47.10
2023-01-26T19:05:43.361Z,46.44
2023-01-26T19:08:49.763Z,45.93
2023-01-26T19:11:54.225Z,46.01
2023-01-26T19:14:58.819Z,46.21
2023-01-26T19:18:04.174Z,46.04
2023-01-26T19:21:08.227Z,45.93
2023-01-26T19:24:12.764Z,46.25
2023-01-26T19:27:17.518Z,47.36
2023-01-26T19:30:22.626Z,47.62
2023-01-26T19:33:29.059Z,46.50
2023-01-26T19:36:34.946Z,46.32
2023-01-26T19:39:39.481Z,45.59
2023-01-26T19:42:44.105Z,45.66
2023-01-26T19:45:50.542Z,45.66
2023-01-26T19:48:54.562Z,45.07
2023-01-26T19:51:58.954Z,45.29
2023-01-26T19:55:03.085Z,45.44
2023-01-26T19:58:07.381Z,45.03
2023-01-26T20:01:13.525Z,44.40
2023-01-26T20:04:17.707Z,44.92
2023-01-26T20:07:22.340Z,45.50
2023-01-26T20:10:26.417Z,44.90
2023-01-26T20:13:33.657Z,45.09
2023-01-26T20:16:38.620Z,45.51
2023-01-26T20:19:43.182Z,45.57
2023-01-26T20:22:47.135Z,45.95
2023-01-26T20:25:52.544Z,46.44
2023-01-26T20:28:58.437Z,46.39
2023-01-26T20:32:03.867Z,46.57
2023-01-26T20:35:09.993Z,47.20
2023-01-26T20:38:14.646Z,46.82
2023-01-26T20:41:21.984Z,46.56
2023-01-26T20:44:26.535Z,47.10
2023-01-26T20:47:33.622Z,47.46
2023-01-26T20:50:41.005Z,48.10
2023-01-26T20:53:47.218Z,48.82
2023-01-26T20:56:52.199Z,48.96
2023-01-26T20:59:56.613Z,48.40
2023-01-26T21:03:42.426Z,48.44
2023-01-26T21:06:57.724Z,48.53
2023-01-26T21:10:01.826Z,48.25
2023-01-26T21:13:07.178Z,47.32
2023-01-26T21:16:15.598Z,46.64
2023-01-26T21:19:22.283Z,45.83
2023-01-26T21:22:26.268Z,45.11
2023-01-26T21:25:32.887Z,45.51
2023-01-26T21:28:38.370Z,45.83
2023-01-26T21:31:43.123Z,45.76
2023-01-26T21:35:18.868Z,46.08
2023-01-26T21:38:55.841Z,46.81
2023-01-26T21:42:03.236Z,46.44
2023-01-26T21:45:26.656Z,45.98
2023-01-26T21:48:36.648Z,46.54
2023-01-26T21:52:12.561Z,45.78
2023-01-26T21:55:20.816Z,45.53
2023-01-26T21:58:43.391Z,45.19
2023-01-26T22:01:55.730Z,45.53
2023-01-26T22:05:03.069Z,45.29
2023-01-26T22:08:08.699Z,45.81
2023-01-26T22:11:15.387Z,45.72
2023-01-26T22:14:22.397Z,45.82
2023-01-26T22:17:26.327Z,46.32
2023-01-26T22:20:31.000Z,46.76
2023-01-26T22:23:40.083Z,46.75
2023-01-26T22:26:44.372Z,47.02
2023-01-26T22:29:48.601Z,47.28
2023-01-26T22:32:52.991Z,46.16
2023-01-26T22:36:01.983Z,46.14
2023-01-26T22:39:06.152Z,46.22
2023-01-26T22:42:10.356Z,45.92
2023-01-26T22:45:15.402Z,46.47
2023-01-26T22:48:20.033Z,46.42
2023-01-26T22:51:26.848Z,46.69
2023-01-26T22:54:31.192Z,47.70
2023-01-26T22:57:35.081Z,47.63
2023-01-26T23:00:40.092Z,48.36
2023-01-26T23:03:46.492Z,48.32
2023-01-26T23:06:50.494Z,48.47
2023-01-26T23:09:54.814Z,48.21
2023-01-26T23:13:02.638Z,48.40
2023-01-26T23:16:07.709Z,49.17
2023-01-26T23:19:11.618Z,48.70
2023-01-26T23:22:15.564Z,48.92
2023-01-26T23:25:38.192Z,48.64
2023-01-26T23:28:45.071Z,48.00
2023-01-26T23:31:49.630Z,47.12
2023-01-26T23:34:54.247Z,46.72
2023-01-26T23:37:58.961Z,45.91
2023-01-26T23:41:05.194Z,45.79
2023-01-26T23:44:10.327Z,45.54
2023-01-26T23:47:14.553Z,47.60
2023-01-26T23:50:19.181Z,48.87
2023-01-26T23:53:24.915Z,48.39
2023-01-26T23:56:29.654Z,48.11
2023-01-26T23:59:34.188Z,47.99
